Time;durP1;ratioP1;P1;durP2;ratioP2;P2;SDS_P1;SDS_P2;PMS_P1;PMS_P2;Temp;Humidity;BMP_temperature;BMP_pressure;BME280_temperature;BME280_humidity;BME280_pressure;Samples;Min_cycle;Max_cycle;Signal;HPM_P1;HPM_P2
2022/02/13 00:00:45;;;;;;;21.02;9.80;;;;;;;;;;5064882;28;20044;-77
2022/02/13 00:03:13;;;;;;;16.13;7.90;;;;;;;;;;5048280;28;20024;-76
2022/02/13 00:05:41;;;;;;;21.50;9.57;;;;;;;;;;5050309;28;20029;-76
2022/02/13 00:08:06;;;;;;;17.17;8.13;;;;;;;;;;5051936;28;20052;-76
2022/02/13 00:10:32;;;;;;;17.55;7.97;;;;;;;;;;5047858;28;20064;-76
2022/02/13 00:12:57;;;;;;;17.05;7.60;;;;;;;;;;5045776;28;20432;-75
2022/02/13 00:15:23;;;;;;;13.73;7.50;;;;;;;;;;5046986;28;20396;-76
2022/02/13 00:17:50;;;;;;;14.23;8.00;;;;;;;;;;5048004;28;20076;-77
2022/02/13 00:20:16;;;;;;;15.70;8.02;;;;;;;;;;5045292;28;20495;-74
2022/02/13 00:22:41;;;;;;;16.98;7.35;;;;;;;;;;5049817;28;20032;-76
2022/02/13 00:25:07;;;;;;;15.27;7.90;;;;;;;;;;5054972;28;20036;-77
2022/02/13 00:27:33;;;;;;;19.10;8.20;;;;;;;;;;5053042;28;20024;-75
2022/02/13 00:29:58;;;;;;;14.43;7.90;;;;;;;;;;5052352;28;20066;-76
2022/02/13 00:32:26;;;;;;;16.00;7.80;;;;;;;;;;5051520;28;20024;-75
2022/02/13 00:34:52;;;;;;;17.05;8.82;;;;;;;;;;5050045;28;20021;-76
2022/02/13 00:37:17;;;;;;;15.73;8.02;;;;;;;;;;5049619;28;20052;-76
2022/02/13 00:39:43;;;;;;;17.67;7.18;;;;;;;;;;5052784;28;20107;-77
2022/02/13 00:42:08;;;;;;;16.33;7.72;;;;;;;;;;5052221;28;20740;-76
2022/02/13 00:44:36;;;;;;;12.65;6.57;;;;;;;;;;5051837;28;20693;-76
2022/02/13 00:47:02;;;;;;;16.75;7.30;;;;;;;;;;5047374;28;20025;-77
2022/02/13 00:49:31;;;;;;;14.30;7.43;;;;;;;;;;5052088;28;20056;-77
2022/02/13 00:51:56;;;;;;;15.48;6.97;;;;;;;;;;5054456;28;20029;-74
2022/02/13 00:54:24;;;;;;;15.55;6.72;;;;;;;;;;5070695;28;20059;-76
2022/02/13 00:56:50;;;;;;;15.57;7.40;;;;;;;;;;5064219;28;20429;-77
2022/02/13 00:59:15;;;;;;;18.40;8.57;;;;;;;;;;5050951;28;20021;-76
2022/02/13 01:01:40;;;;;;;14.80;7.57;;;;;;;;;;5049363;28;20389;-77
2022/02/13 01:04:06;;;;;;;17.08;7.00;;;;;;;;;;5051371;28;20025;-76
2022/02/13 01:06:31;;;;;;;13.10;6.82;;;;;;;;;;5050436;28;20036;-76
2022/02/13 01:09:00;;;;;;;15.25;7.20;;;;;;;;;;5052554;28;20401;-76
2022/02/13 01:11:25;;;;;;;13.02;6.97;;;;;;;;;;5047902;28;20040;-76
2022/02/13 01:13:51;;;;;;;12.10;6.70;;;;;;;;;;5051842;28;20343;-77
2022/02/13 01:16:18;;;;;;;13.70;6.72;;;;;;;;;;5054164;28;20548;-76
2022/02/13 01:18:45;;;;;;;10.60;5.97;;;;;;;;;;5050388;28;20029;-77
2022/02/13 01:21:16;;;;;;;12.80;6.45;;;;;;;;;;5050073;28;20437;-76
2022/02/13 01:23:43;;;;;;;14.00;7.00;;;;;;;;;;5062941;28;20037;-76
2022/02/13 01:26:12;;;;;;;13.25;6.53;;;;;;;;;;5050587;28;20052;-77
2022/02/13 01:28:40;;;;;;;13.88;7.43;;;;;;;;;;5049755;28;20090;-76
2022/02/13 01:31:08;;;;;;;14.60;7.53;;;;;;;;;;5050650;28;20039;-77
2022/02/13 01:33:34;;;;;;;14.60;6.90;;;;;;;;;;5049317;28;20028;-77
2022/02/13 01:36:00;;;;;;;14.93;6.97;;;;;;;;;;5050229;28;20035;-76
2022/02/13 01:38:27;;;;;;;13.32;6.88;;;;;;;;;;5053507;28;20090;-76
2022/02/13 01:40:53;;;;;;;11.70;6.45;;;;;;;;;;5050939;28;20033;-77
2022/02/13 01:43:19;;;;;;;14.82;6.30;;;;;;;;;;5051646;28;20024;-77
2022/02/13 01:45:47;;;;;;;13.70;6.40;;;;;;;;;;5063296;28;20520;-76
2022/02/13 01:48:13;;;;;;;15.05;6.65;;;;;;;;;;5051189;28;20029;-77
2022/02/13 01:50:40;;;;;;;14.70;7.07;;;;;;;;;;5049411;28;20028;-77
2022/02/13 01:53:06;;;;;;;21.00;9.98;;;;;;;;;;5047680;28;20025;-77
2022/02/13 01:55:32;;;;;;;30.75;11.73;;;;;;;;;;5049621;28;20021;-77
2022/02/13 01:57:58;;;;;;;32.55;13.82;;;;;;;;;;5047285;28;20069;-77
2022/02/13 02:00:24;;;;;;;35.45;12.38;;;;;;;;;;5048297;28;20412;-77
2022/02/13 02:02:53;;;;;;;32.08;13.85;;;;;;;;;;5050068;28;20102;-77
2022/02/13 02:05:21;;;;;;;40.78;15.27;;;;;;;;;;5049334;28;20035;-76
2022/02/13 02:07:47;;;;;;;35.60;14.07;;;;;;;;;;5042551;28;20029;-77
2022/02/13 02:10:15;;;;;;;40.90;15.65;;;;;;;;;;5050076;28;20094;-77
2022/02/13 02:12:40;;;;;;;39.30;14.95;;;;;;;;;;5042047;28;20112;-76
2022/02/13 02:15:06;;;;;;;35.70;15.00;;;;;;;;;;5049879;28;20108;-77
2022/02/13 02:17:33;;;;;;;33.72;13.75;;;;;;;;;;5048940;28;20475;-76
2022/02/13 02:20:00;;;;;;;32.20;13.20;;;;;;;;;;5064663;28;20114;-77
2022/02/13 02:22:28;;;;;;;39.03;15.93;;;;;;;;;;5052263;28;20032;-76
2022/02/13 02:24:54;;;;;;;34.55;13.65;;;;;;;;;;5052979;28;20488;-75
2022/02/13 02:27:19;;;;;;;39.05;15.93;;;;;;;;;;5049518;28;20037;-76
2022/02/13 02:29:44;;;;;;;32.47;14.75;;;;;;;;;;5052603;28;20028;-76
2022/02/13 02:32:12;;;;;;;25.88;12.52;;;;;;;;;;5049043;28;20024;-77
2022/02/13 02:34:40;;;;;;;28.35;13.18;;;;;;;;;;5051438;28;20049;-75
2022/02/13 02:37:07;;;;;;;35.50;12.82;;;;;;;;;;5049809;28;20029;-76
2022/02/13 02:39:33;;;;;;;32.63;13.02;;;;;;;;;;5050695;28;20048;-76
2022/02/13 02:42:02;;;;;;;27.10;12.25;;;;;;;;;;5065344;28;20396;-76
2022/02/13 02:44:28;;;;;;;26.40;12.73;;;;;;;;;;5049940;28;20078;-76
2022/02/13 02:46:54;;;;;;;30.30;12.77;;;;;;;;;;5052710;28;20083;-77
2022/02/13 02:49:19;;;;;;;31.45;13.02;;;;;;;;;;5061890;28;20033;-77
2022/02/13 02:51:47;;;;;;;28.85;13.48;;;;;;;;;;5054139;28;20031;-77
2022/02/13 02:54:12;;;;;;;26.52;12.70;;;;;;;;;;5048641;28;20060;-77
2022/02/13 02:56:40;;;;;;;29.48;13.65;;;;;;;;;;5046112;28;20063;-76
2022/02/13 02:59:05;;;;;;;30.42;12.60;;;;;;;;;;5046921;28;20029;-76
2022/02/13 03:01:33;;;;;;;29.27;12.90;;;;;;;;;;5049537;28;20493;-77
2022/02/13 03:03:59;;;;;;;30.98;13.45;;;;;;;;;;5042082;28;20131;-76
2022/02/13 03:06:24;;;;;;;29.35;12.93;;;;;;;;;;5046709;28;20131;-77
2022/02/13 03:08:50;;;;;;;25.45;12.40;;;;;;;;;;5047830;28;20036;-77
2022/02/13 03:11:17;;;;;;;23.75;12.35;;;;;;;;;;5043676;28;20112;-77
2022/02/13 03:13:44;;;;;;;27.55;12.55;;;;;;;;;;5041479;28;20089;-75
2022/02/13 03:16:10;;;;;;;23.67;12.40;;;;;;;;;;5043224;28;20057;-76
2022/02/13 03:18:36;;;;;;;27.98;12.55;;;;;;;;;;5066584;28;20391;-75
2022/02/13 03:21:01;;;;;;;26.50;11.38;;;;;;;;;;5049074;28;20108;-77
2022/02/13 03:23:27;;;;;;;25.45;11.25;;;;;;;;;;5049913;28;20060;-76
2022/02/13 03:25:53;;;;;;;20.40;10.10;;;;;;;;;;5065630;28;20067;-76
2022/02/13 03:28:19;;;;;;;20.92;9.82;;;;;;;;;;5045827;28;20081;-76
2022/02/13 03:30:45;;;;;;;20.70;10.13;;;;;;;;;;5049925;28;20029;-76
2022/02/13 03:33:11;;;;;;;15.43;8.65;;;;;;;;;;5050206;28;20111;-75
2022/02/13 03:35:36;;;;;;;20.63;9.52;;;;;;;;;;5049542;28;20155;-76
2022/02/13 03:38:07;;;;;;;18.45;9.85;;;;;;;;;;5046472;28;20021;-76
2022/02/13 03:40:33;;;;;;;17.70;9.20;;;;;;;;;;5048020;28;20029;-75
2022/02/13 03:43:05;;;;;;;17.50;8.23;;;;;;;;;;5047272;28;20051;-76
2022/02/13 03:45:30;;;;;;;20.25;9.30;;;;;;;;;;5047664;28;20128;-76
2022/02/13 03:48:01;;;;;;;20.08;9.10;;;;;;;;;;5048627;28;20037;-76
2022/02/13 03:50:27;;;;;;;17.73;8.20;;;;;;;;;;5050897;28;20029;-75
2022/02/13 03:52:53;;;;;;;16.80;7.53;;;;;;;;;;5048760;28;20029;-76
2022/02/13 03:55:21;;;;;;;15.77;7.57;;;;;;;;;;5071972;28;20017;-75
2022/02/13 03:57:47;;;;;;;13.82;6.75;;;;;;;;;;5057904;28;20033;-76
2022/02/13 04:00:13;;;;;;;11.80;6.35;;;;;;;;;;5050182;28;20485;-75
2022/02/13 04:02:42;;;;;;;13.85;6.63;;;;;;;;;;5050042;28;20028;-76
2022/02/13 04:05:09;;;;;;;15.23;6.80;;;;;;;;;;5046790;28;20036;-76
2022/02/13 04:07:38;;;;;;;12.55;6.25;;;;;;;;;;5051717;28;20056;-76
2022/02/13 04:10:04;;;;;;;13.93;6.47;;;;;;;;;;5052690;28;20520;-76
2022/02/13 04:12:30;;;;;;;11.02;5.28;;;;;;;;;;5051195;28;20063;-76
2022/02/13 04:14:55;;;;;;;15.88;6.28;;;;;;;;;;5048985;28;20073;-76
2022/02/13 04:17:21;;;;;;;13.48;5.40;;;;;;;;;;5047041;28;20474;-75
2022/02/13 04:19:47;;;;;;;11.38;5.97;;;;;;;;;;5051807;28;20434;-76
2022/02/13 04:22:12;;;;;;;11.57;5.18;;;;;;;;;;5054795;28;20031;-75
2022/02/13 04:24:38;;;;;;;13.20;5.57;;;;;;;;;;5052248;28;20020;-76
2022/02/13 04:27:04;;;;;;;12.50;5.22;;;;;;;;;;5051694;28;20032;-76
2022/02/13 04:29:29;;;;;;;9.60;5.18;;;;;;;;;;5052025;28;20027;-76
2022/02/13 04:31:55;;;;;;;17.08;5.75;;;;;;;;;;5050498;28;20461;-76
2022/02/13 04:34:20;;;;;;;10.80;5.38;;;;;;;;;;5050878;28;20102;-77
2022/02/13 04:36:48;;;;;;;10.38;5.30;;;;;;;;;;5051113;28;20033;-76
2022/02/13 04:39:16;;;;;;;11.75;5.03;;;;;;;;;;5047921;28;20108;-77
2022/02/13 04:41:42;;;;;;;12.73;5.55;;;;;;;;;;5053858;28;20134;-76
2022/02/13 04:44:10;;;;;;;10.93;4.68;;;;;;;;;;5051900;28;20493;-77
2022/02/13 04:46:35;;;;;;;14.00;6.20;;;;;;;;;;5049703;28;20108;-76
2022/02/13 04:49:00;;;;;;;15.65;5.60;;;;;;;;;;5049588;28;20085;-75
2022/02/13 04:51:26;;;;;;;10.63;5.18;;;;;;;;;;5052920;28;20036;-77
2022/02/13 04:53:51;;;;;;;8.77;5.07;;;;;;;;;;5047341;28;20033;-78
2022/02/13 04:56:17;;;;;;;12.73;5.68;;;;;;;;;;5048319;28;20451;-77
2022/02/13 04:58:42;;;;;;;9.60;4.90;;;;;;;;;;5048038;28;20482;-76
2022/02/13 05:01:11;;;;;;;8.30;4.55;;;;;;;;;;5050650;28;20469;-76
2022/02/13 05:03:39;;;;;;;11.35;5.18;;;;;;;;;;5049138;28;20060;-76
2022/02/13 05:06:08;;;;;;;13.95;5.57;;;;;;;;;;5048098;28;20029;-76
2022/02/13 05:08:33;;;;;;;11.87;4.70;;;;;;;;;;5046746;28;20032;-75
2022/02/13 05:11:01;;;;;;;9.93;4.63;;;;;;;;;;5049508;28;20036;-77
2022/02/13 05:13:29;;;;;;;10.02;4.65;;;;;;;;;;5051098;28;20120;-76
2022/02/13 05:15:54;;;;;;;11.95;5.35;;;;;;;;;;5050971;28;20033;-76
2022/02/13 05:18:20;;;;;;;12.68;5.32;;;;;;;;;;5049851;28;20044;-77
2022/02/13 05:20:45;;;;;;;13.80;5.20;;;;;;;;;;5051218;28;20032;-76
2022/02/13 05:23:10;;;;;;;13.43;5.53;;;;;;;;;;5054125;28;20028;-75
2022/02/13 05:25:36;;;;;;;16.38;5.80;;;;;;;;;;5049450;28;20034;-77
2022/02/13 05:28:01;;;;;;;12.52;4.90;;;;;;;;;;5049107;28;20074;-77
2022/02/13 05:30:27;;;;;;;10.52;5.00;;;;;;;;;;5050324;28;20060;-77
2022/02/13 05:32:52;;;;;;;12.55;5.43;;;;;;;;;;5049385;28;20089;-76
2022/02/13 05:35:17;;;;;;;9.05;5.07;;;;;;;;;;5049020;28;20155;-76
2022/02/13 05:37:43;;;;;;;11.85;5.35;;;;;;;;;;5049596;28;20024;-76
2022/02/13 05:40:09;;;;;;;8.10;5.10;;;;;;;;;;5051518;28;20036;-77
2022/02/13 05:42:37;;;;;;;10.35;5.13;;;;;;;;;;5050596;28;20296;-76
2022/02/13 05:45:03;;;;;;;8.52;5.03;;;;;;;;;;5051736;28;20031;-76
2022/02/13 05:47:33;;;;;;;16.38;5.22;;;;;;;;;;5050274;28;20028;-77
2022/02/13 05:49:58;;;;;;;12.10;5.30;;;;;;;;;;5063053;28;20040;-75
2022/02/13 05:52:24;;;;;;;14.38;5.38;;;;;;;;;;5050434;28;20108;-76
2022/02/13 05:54:49;;;;;;;12.07;5.97;;;;;;;;;;5050116;28;20497;-77
2022/02/13 05:57:15;;;;;;;11.93;5.50;;;;;;;;;;5049276;28;20036;-76
2022/02/13 05:59:43;;;;;;;14.30;6.90;;;;;;;;;;5044991;28;20492;-76
2022/02/13 06:02:10;;;;;;;12.90;5.65;;;;;;;;;;5046300;28;20033;-75
2022/02/13 06:04:36;;;;;;;13.30;6.38;;;;;;;;;;5047379;28;20025;-77
2022/02/13 06:07:01;;;;;;;11.82;6.80;;;;;;;;;;5047969;28;20039;-77
2022/02/13 06:09:27;;;;;;;19.42;5.82;;;;;;;;;;5049467;28;20037;-76
2022/02/13 06:11:57;;;;;;;13.13;5.70;;;;;;;;;;5044532;28;20028;-75
2022/02/13 06:14:22;;;;;;;19.25;6.47;;;;;;;;;;5047630;28;20115;-75
2022/02/13 06:16:48;;;;;;;12.77;5.20;;;;;;;;;;5056064;28;20462;-75
2022/02/13 06:19:13;;;;;;;13.80;5.85;;;;;;;;;;5055119;28;20085;-76
2022/02/13 06:21:39;;;;;;;10.93;5.45;;;;;;;;;;5051037;28;20036;-75
2022/02/13 06:24:04;;;;;;;11.00;6.00;;;;;;;;;;5049243;28;20393;-76
2022/02/13 06:26:33;;;;;;;17.75;7.68;;;;;;;;;;5049266;28;20029;-76
2022/02/13 06:29:01;;;;;;;14.70;6.20;;;;;;;;;;5047803;28;20112;-75
2022/02/13 06:31:26;;;;;;;13.30;5.90;;;;;;;;;;5047046;28;20118;-76
2022/02/13 06:33:51;;;;;;;12.90;6.22;;;;;;;;;;5050017;28;20048;-76
2022/02/13 06:36:17;;;;;;;10.45;5.88;;;;;;;;;;5049215;28;20389;-75
2022/02/13 06:38:42;;;;;;;12.65;5.78;;;;;;;;;;5049328;28;20028;-76
2022/02/13 06:41:08;;;;;;;14.38;7.00;;;;;;;;;;5046209;28;20021;-76
2022/02/13 06:43:33;;;;;;;12.65;5.22;;;;;;;;;;5052161;28;20037;-76
2022/02/13 06:45:59;;;;;;;11.10;5.97;;;;;;;;;;5048680;28;20061;-76
2022/02/13 06:48:31;;;;;;;12.02;5.45;;;;;;;;;;5047625;28;20033;-76
2022/02/13 06:50:58;;;;;;;12.77;5.28;;;;;;;;;;5051601;28;20028;-75
2022/02/13 06:53:27;;;;;;;16.35;5.85;;;;;;;;;;5051333;28;20036;-76
2022/02/13 06:55:55;;;;;;;12.90;6.50;;;;;;;;;;5046474;28;20037;-76
2022/02/13 06:58:21;;;;;;;14.40;6.25;;;;;;;;;;5046985;28;20461;-76
2022/02/13 07:00:46;;;;;;;13.88;6.40;;;;;;;;;;5048499;28;20113;-76
2022/02/13 07:03:12;;;;;;;12.57;6.47;;;;;;;;;;5048998;28;20028;-75
2022/02/13 07:05:38;;;;;;;14.40;6.80;;;;;;;;;;5045314;28;20046;-75
2022/02/13 07:08:04;;;;;;;18.08;7.40;;;;;;;;;;5045833;28;20060;-75
2022/02/13 07:10:29;;;;;;;13.82;7.38;;;;;;;;;;5047166;28;20109;-75
2022/02/13 07:12:54;;;;;;;20.48;7.95;;;;;;;;;;5048434;28;20041;-75
2022/02/13 07:15:20;;;;;;;23.08;8.20;;;;;;;;;;5049675;28;20055;-76
2022/02/13 07:17:45;;;;;;;19.05;8.25;;;;;;;;;;5050145;28;20040;-76
2022/02/13 07:20:11;;;;;;;20.38;7.78;;;;;;;;;;5047360;28;20021;-77
2022/02/13 07:22:37;;;;;;;16.77;7.00;;;;;;;;;;5048134;28;20083;-76
2022/02/13 07:25:07;;;;;;;15.80;7.55;;;;;;;;;;5050186;28;20029;-76
2022/02/13 07:27:33;;;;;;;15.00;6.90;;;;;;;;;;5065900;28;20477;-77
2022/02/13 07:29:59;;;;;;;11.75;6.78;;;;;;;;;;5050953;28;20033;-75
2022/02/13 07:32:25;;;;;;;13.68;6.65;;;;;;;;;;5054752;28;20485;-76
2022/02/13 07:34:53;;;;;;;12.25;6.70;;;;;;;;;;5055400;28;20038;-77
2022/02/13 07:37:18;;;;;;;16.50;7.07;;;;;;;;;;5067476;28;20029;-76
2022/02/13 07:39:45;;;;;;;14.63;6.72;;;;;;;;;;5049562;28;20392;-76
2022/02/13 07:42:10;;;;;;;13.93;7.25;;;;;;;;;;5048403;28;20060;-76
2022/02/13 07:44:37;;;;;;;17.63;7.72;;;;;;;;;;5069164;28;20076;-76
2022/02/13 07:47:03;;;;;;;19.10;7.50;;;;;;;;;;5050657;28;20029;-76
2022/02/13 07:49:29;;;;;;;20.60;8.23;;;;;;;;;;5051919;28;20101;-77
2022/02/13 07:51:54;;;;;;;16.63;7.50;;;;;;;;;;5050198;28;20029;-76
2022/02/13 07:54:20;;;;;;;19.30;8.13;;;;;;;;;;5050908;28;20033;-76
2022/02/13 07:56:45;;;;;;;19.45;8.50;;;;;;;;;;5068511;28;20026;-75
2022/02/13 07:59:13;;;;;;;17.48;7.78;;;;;;;;;;5051334;28;20024;-76
2022/02/13 08:01:38;;;;;;;15.23;8.20;;;;;;;;;;5051545;28;20482;-76
2022/02/13 08:04:04;;;;;;;22.05;9.25;;;;;;;;;;5051825;28;20040;-76
2022/02/13 08:06:30;;;;;;;19.65;8.77;;;;;;;;;;5049093;28;20436;-76
2022/02/13 08:08:55;;;;;;;22.23;9.20;;;;;;;;;;5048537;28;20497;-75
2022/02/13 08:11:20;;;;;;;18.48;9.23;;;;;;;;;;5048682;28;20036;-75
2022/02/13 08:13:46;;;;;;;22.33;8.50;;;;;;;;;;5054008;28;20021;-75
2022/02/13 08:16:12;;;;;;;22.48;9.20;;;;;;;;;;5053139;28;20625;-77
2022/02/13 08:18:39;;;;;;;18.73;8.70;;;;;;;;;;5051273;28;20020;-75
2022/02/13 08:21:08;;;;;;;19.35;8.60;;;;;;;;;;5054664;28;20043;-74
2022/02/13 08:23:34;;;;;;;19.67;9.25;;;;;;;;;;5051110;28;20079;-76
2022/02/13 08:26:00;;;;;;;18.15;8.77;;;;;;;;;;5050029;28;20032;-76
2022/02/13 08:28:31;;;;;;;18.50;8.77;;;;;;;;;;5066517;28;20029;-76
2022/02/13 08:30:58;;;;;;;18.15;8.63;;;;;;;;;;5050546;28;20148;-76
2022/02/13 08:33:24;;;;;;;18.23;8.32;;;;;;;;;;5049565;28;20480;-76
2022/02/13 08:35:50;;;;;;;22.17;8.75;;;;;;;;;;5053645;28;20161;-76
2022/02/13 08:38:15;;;;;;;14.65;7.35;;;;;;;;;;5055107;28;20477;-75
2022/02/13 08:40:41;;;;;;;18.25;8.00;;;;;;;;;;5050292;28;20036;-76
2022/02/13 08:43:09;;;;;;;23.13;8.52;;;;;;;;;;5050239;28;20108;-75
2022/02/13 08:45:38;;;;;;;20.20;9.30;;;;;;;;;;5055312;28;20358;-76
2022/02/13 08:48:04;;;;;;;22.48;9.80;;;;;;;;;;5062037;28;20154;-76
2022/02/13 08:50:30;;;;;;;18.80;8.90;;;;;;;;;;5051421;28;20029;-76
2022/02/13 08:52:56;;;;;;;18.17;8.48;;;;;;;;;;5050428;28;20120;-75
2022/02/13 08:55:22;;;;;;;19.33;8.85;;;;;;;;;;5052306;28;20028;-76
2022/02/13 08:57:48;;;;;;;15.05;7.88;;;;;;;;;;5052038;28;20394;-76
2022/02/13 09:00:16;;;;;;;23.58;9.38;;;;;;;;;;5047523;28;20021;-76
2022/02/13 09:02:42;;;;;;;18.10;9.43;;;;;;;;;;5048506;28;20075;-76
2022/02/13 09:05:09;;;;;;;29.83;9.90;;;;;;;;;;5051717;28;20163;-75
2022/02/13 09:07:41;;;;;;;25.50;9.13;;;;;;;;;;5052681;28;20622;-76
2022/02/13 09:10:10;;;;;;;15.73;8.45;;;;;;;;;;5048501;28;20378;-76
2022/02/13 09:12:36;;;;;;;;;;;;;;;;;;5050825;28;20040;-76
2022/02/13 09:15:02;;;;;;;22.17;9.07;;;;;;;;;;5052903;28;19919;-76
2022/02/13 09:17:28;;;;;;;21.70;9.93;;;;;;;;;;5050414;28;20032;-76
2022/02/13 09:19:53;;;;;;;23.67;10.88;;;;;;;;;;5049708;28;20116;-75
2022/02/13 09:22:21;;;;;;;18.73;9.38;;;;;;;;;;5049927;28;20486;-76
2022/02/13 09:24:49;;;;;;;19.42;9.15;;;;;;;;;;5051776;28;20024;-77
2022/02/13 09:27:15;;;;;;;21.70;9.82;;;;;;;;;;5066418;28;20075;-75
2022/02/13 09:29:46;;;;;;;20.52;9.40;;;;;;;;;;5048846;28;20108;-76
2022/02/13 09:32:15;;;;;;;17.85;8.90;;;;;;;;;;5050476;28;20405;-75
2022/02/13 09:34:40;;;;;;;14.80;8.27;;;;;;;;;;5057824;28;20032;-76
2022/02/13 09:37:08;;;;;;;21.23;9.20;;;;;;;;;;5057388;28;20052;-75
2022/02/13 09:39:34;;;;;;;19.25;8.60;;;;;;;;;;5050662;28;20024;-75
2022/02/13 09:42:04;;;;;;;20.38;10.32;;;;;;;;;;5060348;28;20044;-76
2022/02/13 09:44:30;;;;;;;20.77;10.45;;;;;;;;;;5054945;28;20032;-75
2022/02/13 09:46:55;;;;;;;21.50;12.35;;;;;;;;;;5050471;28;20078;-75
2022/02/13 09:49:23;;;;;;;25.73;11.70;;;;;;;;;;5048188;28;20035;-76
2022/02/13 09:51:51;;;;;;;22.13;11.07;;;;;;;;;;5047145;28;20085;-76
2022/02/13 09:54:17;;;;;;;17.95;9.15;;;;;;;;;;5044606;28;20265;-77
2022/02/13 09:56:47;;;;;;;20.73;9.85;;;;;;;;;;5049689;28;20141;-76
2022/02/13 09:59:13;;;;;;;24.65;10.57;;;;;;;;;;5048419;28;20103;-75
2022/02/13 10:01:42;;;;;;;25.60;13.32;;;;;;;;;;5048002;28;20029;-76
2022/02/13 10:04:12;;;;;;;33.25;18.00;;;;;;;;;;5051619;28;20032;-75
2022/02/13 10:06:38;;;;;;;32.25;14.95;;;;;;;;;;5046037;28;20317;-76
2022/02/13 10:09:08;;;;;;;28.63;13.93;;;;;;;;;;5048060;28;20041;-75
2022/02/13 10:11:36;;;;;;;69.32;29.67;;;;;;;;;;5051734;28;20029;-76
2022/02/13 10:14:13;;;;;;;53.28;23.35;;;;;;;;;;5051682;28;20102;-76
2022/02/13 10:16:43;;;;;;;43.78;20.20;;;;;;;;;;5052101;28;20055;-77
2022/02/13 10:19:09;;;;;;;;;;;;;;;;;;5050694;28;20389;-76
2022/02/13 10:21:51;;;;;;;37.22;16.30;;;;;;;;;;5066859;28;19919;-77
2022/02/13 10:24:21;;;;;;;23.33;14.55;;;;;;;;;;5066141;28;20051;-76
2022/02/13 10:26:51;;;;;;;22.73;11.23;;;;;;;;;;5053719;28;20033;-76
2022/02/13 10:29:19;;;;;;;20.95;10.65;;;;;;;;;;5048863;28;20037;-77
2022/02/13 10:31:45;;;;;;;18.33;9.20;;;;;;;;;;5047498;28;20032;-76
2022/02/13 10:34:16;;;;;;;19.45;9.40;;;;;;;;;;5050802;28;20017;-76
2022/02/13 10:36:46;;;;;;;15.27;8.20;;;;;;;;;;5052447;28;20573;-76
2022/02/13 10:39:18;;;;;;;;;;;;;;;;;;5047782;28;20025;-76
2022/02/13 10:41:43;;;;;;;17.67;7.90;;;;;;;;;;5049057;28;19922;-78
2022/02/13 10:44:09;;;;;;;19.05;7.95;;;;;;;;;;5049771;28;20099;-76
2022/02/13 10:46:47;;;;;;;22.05;7.95;;;;;;;;;;5050657;28;20044;-75
2022/02/13 10:49:14;;;;;;;17.88;8.18;;;;;;;;;;5047054;28;20039;-76
2022/02/13 10:51:40;;;;;;;15.00;8.02;;;;;;;;;;5049196;28;20035;-76
2022/02/13 10:54:06;;;;;;;20.95;8.65;;;;;;;;;;5050661;28;20119;-76
2022/02/13 10:56:35;;;;;;;15.15;7.82;;;;;;;;;;5049574;28;20056;-76
2022/02/13 10:59:04;;;;;;;18.70;7.50;;;;;;;;;;5057692;28;20489;-77
2022/02/13 11:01:30;;;;;;;13.43;7.50;;;;;;;;;;5048724;28;20032;-76
2022/02/13 11:04:02;;;;;;;18.15;7.53;;;;;;;;;;5041551;28;20056;-76
2022/02/13 11:06:34;;;;;;;14.85;7.38;;;;;;;;;;5048016;28;20175;-77
2022/02/13 11:09:25;;;;;;;15.57;7.63;;;;;;;;;;5051829;28;20064;-77
2022/02/13 11:11:52;;;;;;;15.25;7.55;;;;;;;;;;5049408;28;20029;-76
2022/02/13 11:14:40;;;;;;;13.68;7.05;;;;;;;;;;5051074;28;20033;-76
2022/02/13 11:17:09;;;;;;;17.08;7.60;;;;;;;;;;5048410;28;20025;-76
2022/02/13 11:19:39;;;;;;;14.00;6.83;;;;;;;;;;5047636;28;20025;-77
2022/02/13 11:22:05;;;;;;;14.63;7.07;;;;;;;;;;5047660;28;20432;-75
2022/02/13 11:24:35;;;;;;;11.10;6.90;;;;;;;;;;5051442;28;20051;-77
2022/02/13 11:27:02;;;;;;;15.65;6.95;;;;;;;;;;5051386;28;20064;-76
2022/02/13 11:29:56;;;;;;;13.55;6.72;;;;;;;;;;5047035;28;20115;-75
2022/02/13 11:32:48;;;;;;;18.67;7.28;;;;;;;;;;5062883;28;20108;-76
2022/02/13 11:35:19;;;;;;;14.25;6.32;;;;;;;;;;5046793;28;20025;-77
2022/02/13 11:37:50;;;;;;;15.07;7.63;;;;;;;;;;5068345;28;20029;-76
2022/02/13 11:40:33;;;;;;;15.27;7.07;;;;;;;;;;5066477;28;20441;-76
2022/02/13 11:43:00;;;;;;;13.60;7.07;;;;;;;;;;5047445;28;20032;-77
2022/02/13 11:45:26;;;;;;;20.13;7.85;;;;;;;;;;5051835;28;20048;-77
2022/02/13 11:47:55;;;;;;;16.20;7.50;;;;;;;;;;5042290;28;20037;-76
2022/02/13 11:50:21;;;;;;;17.15;7.93;;;;;;;;;;5050340;28;20025;-76
2022/02/13 11:52:59;;;;;;;14.05;7.80;;;;;;;;;;5042700;28;20099;-76
2022/02/13 11:55:26;;;;;;;13.43;7.00;;;;;;;;;;5063801;28;20025;-76
2022/02/13 11:58:05;;;;;;;13.60;7.43;;;;;;;;;;5048676;28;20108;-76
2022/02/13 12:00:50;;;;;;;11.77;6.97;;;;;;;;;;5046209;28;20094;-76
2022/02/13 12:03:21;;;;;;;15.38;7.20;;;;;;;;;;5050805;28;20521;-76
2022/02/13 12:05:52;;;;;;;11.25;6.97;;;;;;;;;;5047893;28;20029;-76
2022/02/13 12:08:22;;;;;;;11.35;6.25;;;;;;;;;;5049639;28;20028;-75
2022/02/13 12:10:47;;;;;;;13.88;7.13;;;;;;;;;;5067345;28;20516;-77
2022/02/13 12:13:17;;;;;;;13.02;7.30;;;;;;;;;;5050960;28;20033;-77
2022/02/13 12:15:54;;;;;;;11.07;6.50;;;;;;;;;;5051400;28;20025;-76
2022/02/13 12:18:20;;;;;;;13.48;6.70;;;;;;;;;;5055253;28;20330;-75
2022/02/13 12:20:46;;;;;;;14.60;7.10;;;;;;;;;;5059679;28;20037;-76
2022/02/13 12:23:14;;;;;;;13.95;6.85;;;;;;;;;;5055228;28;20040;-76
2022/02/13 12:25:42;;;;;;;14.77;7.07;;;;;;;;;;5055304;28;20037;-75
2022/02/13 12:28:10;;;;;;;13.55;6.78;;;;;;;;;;5059379;28;20060;-76
2022/02/13 12:30:36;;;;;;;13.10;7.32;;;;;;;;;;5058631;28;20137;-77
2022/02/13 12:33:04;;;;;;;13.48;7.00;;;;;;;;;;5053717;28;20114;-77
2022/02/13 12:35:35;;;;;;;12.10;7.38;;;;;;;;;;5058353;28;20504;-75
2022/02/13 12:38:03;;;;;;;15.93;6.97;;;;;;;;;;5056053;28;20025;-76
2022/02/13 12:40:38;;;;;;;15.45;6.95;;;;;;;;;;5069056;28;20361;-77
2022/02/13 12:43:09;;;;;;;11.30;6.78;;;;;;;;;;5057097;28;20052;-77
2022/02/13 12:45:41;;;;;;;12.82;6.72;;;;;;;;;;5052330;28;20066;-76
2022/02/13 12:48:12;;;;;;;11.52;6.65;;;;;;;;;;5049259;28;20025;-76
2022/02/13 12:50:42;;;;;;;11.85;6.15;;;;;;;;;;5050375;28;20033;-75
2022/02/13 12:53:10;;;;;;;15.23;6.40;;;;;;;;;;5062854;28;20017;-74
2022/02/13 12:55:38;;;;;;;12.13;6.15;;;;;;;;;;5053227;28;20897;-78
2022/02/13 12:58:07;;;;;;;12.40;7.00;;;;;;;;;;5052492;28;20056;-75
2022/02/13 13:00:35;;;;;;;18.80;6.57;;;;;;;;;;5047839;28;20021;-77
2022/02/13 13:03:10;;;;;;;14.40;6.60;;;;;;;;;;5053319;28;20089;-76
2022/02/13 13:05:57;;;;;;;11.32;6.43;;;;;;;;;;5048362;28;20033;-75
2022/02/13 13:08:25;;;;;;;13.18;6.43;;;;;;;;;;5052264;28;20029;-77
2022/02/13 13:11:03;;;;;;;13.13;5.30;;;;;;;;;;5069623;28;20029;-76
2022/02/13 13:13:28;;;;;;;13.80;6.53;;;;;;;;;;5051814;28;20113;-76
2022/02/13 13:16:09;;;;;;;11.90;6.28;;;;;;;;;;5053242;28;20021;-75
2022/02/13 13:18:48;;;;;;;13.90;6.70;;;;;;;;;;5070133;28;20021;-75
2022/02/13 13:21:21;;;;;;;11.15;5.72;;;;;;;;;;5050923;28;20024;-76
2022/02/13 13:23:54;;;;;;;11.68;6.43;;;;;;;;;;5067331;28;20099;-76
2022/02/13 13:26:21;;;;;;;9.30;5.65;;;;;;;;;;5050326;28;20024;-76
2022/02/13 13:28:47;;;;;;;11.98;5.55;;;;;;;;;;5051937;28;20044;-76
2022/02/13 13:31:15;;;;;;;7.63;5.47;;;;;;;;;;5050724;28;20037;-77
2022/02/13 13:33:40;;;;;;;9.38;5.60;;;;;;;;;;5051576;28;20025;-75
2022/02/13 13:36:06;;;;;;;12.43;5.63;;;;;;;;;;5052910;28;20112;-74
2022/02/13 13:38:33;;;;;;;9.68;5.20;;;;;;;;;;5071215;28;20031;-75
2022/02/13 13:41:07;;;;;;;11.35;5.63;;;;;;;;;;5049578;28;20036;-75
2022/02/13 13:43:33;;;;;;;11.77;5.10;;;;;;;;;;5052962;28;20119;-77
2022/02/13 13:46:14;;;;;;;9.32;5.57;;;;;;;;;;5061539;28;20021;-76
2022/02/13 13:48:40;;;;;;;10.35;5.13;;;;;;;;;;5046447;28;20029;-75
2022/02/13 13:51:08;;;;;;;12.35;5.20;;;;;;;;;;5049589;28;20021;-76
2022/02/13 13:53:34;;;;;;;10.20;5.60;;;;;;;;;;5045003;28;20460;-77
2022/02/13 13:56:01;;;;;;;11.13;5.20;;;;;;;;;;5066450;28;20031;-78
2022/02/13 13:58:26;;;;;;;10.80;5.22;;;;;;;;;;5049572;28;20025;-76
2022/02/13 14:00:52;;;;;;;10.43;4.88;;;;;;;;;;5049133;28;20394;-75
2022/02/13 14:03:19;;;;;;;12.02;4.88;;;;;;;;;;5051785;28;20115;-75
2022/02/13 14:05:45;;;;;;;9.18;5.32;;;;;;;;;;5047569;28;20036;-75
2022/02/13 14:08:12;;;;;;;11.00;4.95;;;;;;;;;;5050772;28;20104;-75
2022/02/13 14:10:43;;;;;;;10.98;6.15;;;;;;;;;;5048368;28;20029;-75
2022/02/13 14:13:10;;;;;;;9.48;5.20;;;;;;;;;;5050028;28;20100;-76
2022/02/13 14:15:36;;;;;;;10.88;5.03;;;;;;;;;;5051309;28;20167;-74
2022/02/13 14:18:02;;;;;;;9.35;4.70;;;;;;;;;;5054218;28;20028;-74
2022/02/13 14:20:29;;;;;;;9.10;5.25;;;;;;;;;;5051415;28;20505;-76
2022/02/13 14:22:57;;;;;;;9.80;4.95;;;;;;;;;;5046480;28;20036;-75
2022/02/13 14:25:22;;;;;;;8.90;4.22;;;;;;;;;;5061008;28;20401;-74
2022/02/13 14:27:48;;;;;;;9.13;4.32;;;;;;;;;;5054302;28;20508;-75
2022/02/13 14:30:14;;;;;;;7.82;5.15;;;;;;;;;;5067059;28;20028;-75